• Join FlightAware (Why Join?)
  • Login
  • US Flag 
06:14AM EDT


 

Airport Tracker/Info


-or-


 

Live Flight TrackerFlight Track Log ✈ EJA396 ✈ 24-Apr-2013 ✈ KPWM - KBHB

Flight Track Log - Related Links

Times and Time Zones

All times are in EDT time to prevent confusion due to time zone crossing. See the EJA396 flight status page for this flight to view local times or setup timezone preferences in your user account.

Time Position Orientation Groundspeed Altitude Reporting Facility
EDT Latitude Longitude Course Direction KTS MPH feet Rate Location/Type
12:35PM 43.8494 -69.7937 59° Northeast  Level FlightAware Approximate
12:36PM 43.8933 -69.6925 59° Northeast  Level FlightAware Approximate
12:37PM 43.9371 -69.5910 60° Northeast  Level FlightAware Approximate
12:38PM 43.9800 -69.4886 60° Northeast  Level FlightAware Approximate
12:39PM 44.0227 -69.3861 60° Northeast  Level FlightAware Approximate
12:40PM 44.0654 -69.2835 60° Northeast  Level FlightAware Approximate
12:41PM 44.1078 -69.1806 61° Northeast  Level FlightAware Approximate
12:42PM 44.1493 -69.0769 61° Northeast  Level FlightAware Approximate
12:43PM 44.1891 -68.9718 63° Northeast  Level FlightAware Approximate
12:44PM 44.2276 -68.8658 63° Northeast  Level FlightAware Approximate
12:45PM 44.2699 -68.7625 60° Northeast  Level FlightAware Approximate
12:46PM 44.3127 -68.6596 60° Northeast  Level FlightAware Approximate
12:47PM 44.3581 -68.5629 47° Northeast  Level FlightAware Approximate
12:48PM 44.3974 -68.4579 65° Northeast  Level FlightAware Approximate
12:49PM 44.4333 -68.3500 65° Northeast  Level FlightAware Approximate
12:50PM 44.4498 -68.3616 65° Northeast  Level Estimated
12:51PM 44.4498 -68.3616 65° Northeast  Level Estimated
12:52PM 44.4498 -68.3616 65° Northeast  Level Estimated
12:53PM 44.4498 -68.3616 65° Northeast  Level Estimated
12:54PM 44.4498 -68.3616 65° Northeast  Level Estimated
12:55PM 44.4498 -68.3616 65° Northeast  Level Estimated
12:56PM 44.4498 -68.3616 65° Northeast  Level Estimated
12:57PM 44.4498 -68.3616 65° Northeast  Level Estimated
12:58PM 44.4498 -68.3616 65° Northeast  Level Estimated